sensor_id;sensor_type;location;lat;lon;timestamp;P1;durP1;ratioP1;P2;durP2;ratioP2
12363;SDS011;6246;50.826;4.712;2024-02-28T00:01:06;16.47;;;12.70;;
12363;SDS011;6246;50.826;4.712;2024-02-28T00:03:32;13.93;;;11.43;;
12363;SDS011;6246;50.826;4.712;2024-02-28T00:05:58;14.87;;;11.27;;
12363;SDS011;6246;50.826;4.712;2024-02-28T00:08:24;15.20;;;12.00;;
12363;SDS011;6246;50.826;4.712;2024-02-28T00:10:50;17.10;;;11.40;;
12363;SDS011;6246;50.826;4.712;2024-02-28T00:13:16;13.60;;;11.30;;
12363;SDS011;6246;50.826;4.712;2024-02-28T00:15:42;12.43;;;10.27;;
12363;SDS011;6246;50.826;4.712;2024-02-28T00:18:09;12.97;;;10.77;;
12363;SDS011;6246;50.826;4.712;2024-02-28T00:20:35;14.13;;;10.90;;
12363;SDS011;6246;50.826;4.712;2024-02-28T00:23:01;13.63;;;10.57;;
12363;SDS011;6246;50.826;4.712;2024-02-28T00:25:27;13.63;;;10.60;;
12363;SDS011;6246;50.826;4.712;2024-02-28T00:27:53;11.37;;;9.57;;
12363;SDS011;6246;50.826;4.712;2024-02-28T00:30:19;13.10;;;10.37;;
12363;SDS011;6246;50.826;4.712;2024-02-28T00:32:45;11.77;;;9.47;;
12363;SDS011;6246;50.826;4.712;2024-02-28T00:35:11;14.10;;;10.67;;
12363;SDS011;6246;50.826;4.712;2024-02-28T00:37:37;12.73;;;10.43;;
12363;SDS011;6246;50.826;4.712;2024-02-28T00:40:03;13.90;;;10.03;;
12363;SDS011;6246;50.826;4.712;2024-02-28T00:42:29;11.63;;;9.13;;
12363;SDS011;6246;50.826;4.712;2024-02-28T00:44:55;11.70;;;9.63;;
12363;SDS011;6246;50.826;4.712;2024-02-28T00:47:21;11.63;;;9.07;;
12363;SDS011;6246;50.826;4.712;2024-02-28T00:49:48;10.60;;;9.03;;
12363;SDS011;6246;50.826;4.712;2024-02-28T00:52:14;11.00;;;9.10;;
12363;SDS011;6246;50.826;4.712;2024-02-28T00:54:40;12.13;;;9.00;;
12363;SDS011;6246;50.826;4.712;2024-02-28T00:57:06;11.27;;;9.23;;
12363;SDS011;6246;50.826;4.712;2024-02-28T00:59:32;10.40;;;8.47;;
12363;SDS011;6246;50.826;4.712;2024-02-28T01:01:58;10.50;;;8.77;;
12363;SDS011;6246;50.826;4.712;2024-02-28T01:04:24;11.73;;;8.90;;
12363;SDS011;6246;50.826;4.712;2024-02-28T01:06:50;11.10;;;8.40;;
12363;SDS011;6246;50.826;4.712;2024-02-28T01:09:16;9.13;;;7.80;;
12363;SDS011;6246;50.826;4.712;2024-02-28T01:11:43;10.77;;;8.67;;
12363;SDS011;6246;50.826;4.712;2024-02-28T01:14:09;9.40;;;7.87;;
12363;SDS011;6246;50.826;4.712;2024-02-28T01:16:35;10.40;;;8.00;;
12363;SDS011;6246;50.826;4.712;2024-02-28T01:19:00;9.57;;;7.87;;
12363;SDS011;6246;50.826;4.712;2024-02-28T01:21:28;9.37;;;7.70;;
12363;SDS011;6246;50.826;4.712;2024-02-28T01:23:54;9.97;;;7.97;;
12363;SDS011;6246;50.826;4.712;2024-02-28T01:26:19;9.70;;;7.40;;
12363;SDS011;6246;50.826;4.712;2024-02-28T01:28:47;9.60;;;7.87;;
12363;SDS011;6246;50.826;4.712;2024-02-28T01:31:13;9.90;;;7.70;;
12363;SDS011;6246;50.826;4.712;2024-02-28T01:33:39;9.67;;;7.73;;
12363;SDS011;6246;50.826;4.712;2024-02-28T01:36:09;10.13;;;7.30;;
12363;SDS011;6246;50.826;4.712;2024-02-28T01:38:35;10.10;;;7.57;;
12363;SDS011;6246;50.826;4.712;2024-02-28T01:41:04;7.80;;;6.93;;
12363;SDS011;6246;50.826;4.712;2024-02-28T01:43:31;9.53;;;6.97;;
12363;SDS011;6246;50.826;4.712;2024-02-28T01:45:59;9.30;;;7.53;;
12363;SDS011;6246;50.826;4.712;2024-02-28T01:48:26;8.87;;;7.03;;
12363;SDS011;6246;50.826;4.712;2024-02-28T01:50:53;7.40;;;6.57;;
12363;SDS011;6246;50.826;4.712;2024-02-28T01:53:19;8.87;;;7.07;;
12363;SDS011;6246;50.826;4.712;2024-02-28T01:55:45;7.60;;;6.67;;
12363;SDS011;6246;50.826;4.712;2024-02-28T01:58:11;9.17;;;7.73;;
12363;SDS011;6246;50.826;4.712;2024-02-28T02:00:37;7.30;;;6.37;;
12363;SDS011;6246;50.826;4.712;2024-02-28T02:03:03;9.17;;;6.90;;
12363;SDS011;6246;50.826;4.712;2024-02-28T02:05:29;7.43;;;6.20;;
12363;SDS011;6246;50.826;4.712;2024-02-28T02:07:56;7.10;;;6.30;;
12363;SDS011;6246;50.826;4.712;2024-02-28T02:10:23;7.20;;;5.73;;
12363;SDS011;6246;50.826;4.712;2024-02-28T02:12:49;7.67;;;6.40;;
12363;SDS011;6246;50.826;4.712;2024-02-28T02:15:15;6.80;;;6.10;;
12363;SDS011;6246;50.826;4.712;2024-02-28T02:17:41;7.27;;;6.30;;
12363;SDS011;6246;50.826;4.712;2024-02-28T02:20:09;7.77;;;6.37;;
12363;SDS011;6246;50.826;4.712;2024-02-28T02:22:38;6.70;;;6.00;;
12363;SDS011;6246;50.826;4.712;2024-02-28T02:25:04;7.20;;;6.20;;
12363;SDS011;6246;50.826;4.712;2024-02-28T02:27:30;6.63;;;5.80;;
12363;SDS011;6246;50.826;4.712;2024-02-28T02:29:56;7.07;;;6.10;;
12363;SDS011;6246;50.826;4.712;2024-02-28T02:32:22;6.43;;;5.70;;
12363;SDS011;6246;50.826;4.712;2024-02-28T02:34:48;7.00;;;6.30;;
12363;SDS011;6246;50.826;4.712;2024-02-28T02:37:14;6.80;;;6.10;;
12363;SDS011;6246;50.826;4.712;2024-02-28T02:39:40;7.57;;;6.23;;
12363;SDS011;6246;50.826;4.712;2024-02-28T02:42:06;6.60;;;5.90;;
12363;SDS011;6246;50.826;4.712;2024-02-28T02:44:33;7.00;;;5.60;;
12363;SDS011;6246;50.826;4.712;2024-02-28T02:46:59;6.23;;;5.60;;
12363;SDS011;6246;50.826;4.712;2024-02-28T02:49:25;8.23;;;6.33;;
12363;SDS011;6246;50.826;4.712;2024-02-28T02:51:51;8.07;;;6.23;;
12363;SDS011;6246;50.826;4.712;2024-02-28T02:54:17;7.00;;;6.07;;
12363;SDS011;6246;50.826;4.712;2024-02-28T02:56:43;6.83;;;5.57;;
12363;SDS011;6246;50.826;4.712;2024-02-28T02:59:10;7.03;;;6.33;;
12363;SDS011;6246;50.826;4.712;2024-02-28T03:01:37;6.53;;;5.83;;
12363;SDS011;6246;50.826;4.712;2024-02-28T03:04:03;6.83;;;6.10;;
12363;SDS011;6246;50.826;4.712;2024-02-28T03:06:29;6.37;;;5.77;;
12363;SDS011;6246;50.826;4.712;2024-02-28T03:08:55;6.43;;;5.83;;
12363;SDS011;6246;50.826;4.712;2024-02-28T03:11:21;6.97;;;5.93;;
12363;SDS011;6246;50.826;4.712;2024-02-28T03:13:50;5.90;;;5.40;;
12363;SDS011;6246;50.826;4.712;2024-02-28T03:16:16;7.63;;;6.30;;
12363;SDS011;6246;50.826;4.712;2024-02-28T03:18:42;6.43;;;5.83;;
12363;SDS011;6246;50.826;4.712;2024-02-28T03:21:08;6.63;;;5.67;;
12363;SDS011;6246;50.826;4.712;2024-02-28T03:23:34;6.47;;;5.87;;
12363;SDS011;6246;50.826;4.712;2024-02-28T03:26:01;7.00;;;5.93;;
12363;SDS011;6246;50.826;4.712;2024-02-28T03:28:28;6.33;;;5.70;;
12363;SDS011;6246;50.826;4.712;2024-02-28T03:30:54;6.20;;;5.57;;
12363;SDS011;6246;50.826;4.712;2024-02-28T03:33:20;6.83;;;6.00;;
12363;SDS011;6246;50.826;4.712;2024-02-28T03:35:47;6.70;;;6.00;;
12363;SDS011;6246;50.826;4.712;2024-02-28T03:38:13;6.30;;;5.70;;
12363;SDS011;6246;50.826;4.712;2024-02-28T03:40:39;6.47;;;5.80;;
12363;SDS011;6246;50.826;4.712;2024-02-28T03:43:05;8.10;;;5.97;;
12363;SDS011;6246;50.826;4.712;2024-02-28T03:45:31;6.57;;;5.83;;
12363;SDS011;6246;50.826;4.712;2024-02-28T03:48:02;6.83;;;6.13;;
12363;SDS011;6246;50.826;4.712;2024-02-28T03:50:28;6.43;;;5.80;;
12363;SDS011;6246;50.826;4.712;2024-02-28T03:52:54;6.20;;;5.60;;
12363;SDS011;6246;50.826;4.712;2024-02-28T03:55:20;6.17;;;5.57;;
12363;SDS011;6246;50.826;4.712;2024-02-28T03:57:47;6.73;;;5.83;;
12363;SDS011;6246;50.826;4.712;2024-02-28T04:00:13;6.33;;;5.73;;
12363;SDS011;6246;50.826;4.712;2024-02-28T04:02:39;6.77;;;5.63;;
12363;SDS011;6246;50.826;4.712;2024-02-28T04:05:05;6.43;;;5.77;;
12363;SDS011;6246;50.826;4.712;2024-02-28T04:07:31;5.83;;;5.20;;
12363;SDS011;6246;50.826;4.712;2024-02-28T04:09:57;5.90;;;5.23;;
12363;SDS011;6246;50.826;4.712;2024-02-28T04:12:23;6.03;;;5.43;;
12363;SDS011;6246;50.826;4.712;2024-02-28T04:14:49;7.00;;;5.83;;
12363;SDS011;6246;50.826;4.712;2024-02-28T04:17:15;6.17;;;5.37;;
12363;SDS011;6246;50.826;4.712;2024-02-28T04:19:41;6.00;;;5.40;;
12363;SDS011;6246;50.826;4.712;2024-02-28T04:22:07;7.63;;;5.67;;
12363;SDS011;6246;50.826;4.712;2024-02-28T04:24:33;6.70;;;5.90;;
12363;SDS011;6246;50.826;4.712;2024-02-28T04:26:59;6.50;;;5.43;;
12363;SDS011;6246;50.826;4.712;2024-02-28T04:29:28;6.10;;;5.50;;
12363;SDS011;6246;50.826;4.712;2024-02-28T04:31:54;5.90;;;5.30;;
12363;SDS011;6246;50.826;4.712;2024-02-28T04:34:20;6.40;;;5.57;;
12363;SDS011;6246;50.826;4.712;2024-02-28T04:36:45;7.20;;;5.43;;
12363;SDS011;6246;50.826;4.712;2024-02-28T04:39:11;6.37;;;5.70;;
12363;SDS011;6246;50.826;4.712;2024-02-28T04:41:37;5.77;;;5.17;;
12363;SDS011;6246;50.826;4.712;2024-02-28T04:44:03;6.93;;;6.23;;
12363;SDS011;6246;50.826;4.712;2024-02-28T04:46:29;6.40;;;5.60;;
12363;SDS011;6246;50.826;4.712;2024-02-28T04:48:55;7.20;;;5.47;;
12363;SDS011;6246;50.826;4.712;2024-02-28T04:51:21;5.90;;;5.27;;
12363;SDS011;6246;50.826;4.712;2024-02-28T04:53:47;6.13;;;5.50;;
12363;SDS011;6246;50.826;4.712;2024-02-28T04:56:13;6.83;;;5.67;;
12363;SDS011;6246;50.826;4.712;2024-02-28T04:58:39;5.87;;;5.10;;
12363;SDS011;6246;50.826;4.712;2024-02-28T05:01:05;6.10;;;5.47;;
12363;SDS011;6246;50.826;4.712;2024-02-28T05:03:31;5.90;;;5.33;;
12363;SDS011;6246;50.826;4.712;2024-02-28T05:05:57;6.53;;;5.60;;
12363;SDS011;6246;50.826;4.712;2024-02-28T05:08:24;5.57;;;5.07;;
12363;SDS011;6246;50.826;4.712;2024-02-28T05:10:51;6.00;;;5.40;;
12363;SDS011;6246;50.826;4.712;2024-02-28T05:13:17;6.40;;;5.43;;
12363;SDS011;6246;50.826;4.712;2024-02-28T05:15:43;5.40;;;4.90;;
12363;SDS011;6246;50.826;4.712;2024-02-28T05:18:09;4.97;;;4.57;;
12363;SDS011;6246;50.826;4.712;2024-02-28T05:20:35;6.17;;;5.40;;
12363;SDS011;6246;50.826;4.712;2024-02-28T05:23:01;5.37;;;4.80;;
12363;SDS011;6246;50.826;4.712;2024-02-28T05:25:27;5.60;;;5.00;;
12363;SDS011;6246;50.826;4.712;2024-02-28T05:27:53;5.63;;;5.03;;
12363;SDS011;6246;50.826;4.712;2024-02-28T05:30:19;5.50;;;5.00;;
12363;SDS011;6246;50.826;4.712;2024-02-28T05:32:46;5.57;;;5.07;;
12363;SDS011;6246;50.826;4.712;2024-02-28T05:35:12;5.40;;;4.90;;
12363;SDS011;6246;50.826;4.712;2024-02-28T05:37:38;5.50;;;4.90;;
12363;SDS011;6246;50.826;4.712;2024-02-28T05:40:06;5.63;;;5.03;;
12363;SDS011;6246;50.826;4.712;2024-02-28T05:42:32;5.97;;;5.37;;
12363;SDS011;6246;50.826;4.712;2024-02-28T05:45:01;5.87;;;5.17;;
12363;SDS011;6246;50.826;4.712;2024-02-28T05:47:27;5.47;;;4.97;;
12363;SDS011;6246;50.826;4.712;2024-02-28T05:49:54;5.40;;;4.90;;
12363;SDS011;6246;50.826;4.712;2024-02-28T05:52:21;5.17;;;4.67;;
12363;SDS011;6246;50.826;4.712;2024-02-28T05:54:47;5.80;;;5.03;;
12363;SDS011;6246;50.826;4.712;2024-02-28T05:57:13;5.47;;;4.97;;
12363;SDS011;6246;50.826;4.712;2024-02-28T05:59:40;5.67;;;4.80;;
12363;SDS011;6246;50.826;4.712;2024-02-28T06:02:06;5.20;;;4.70;;
12363;SDS011;6246;50.826;4.712;2024-02-28T06:04:32;5.00;;;4.50;;
12363;SDS011;6246;50.826;4.712;2024-02-28T06:06:58;5.30;;;4.80;;
12363;SDS011;6246;50.826;4.712;2024-02-28T06:09:25;6.17;;;5.57;;
12363;SDS011;6246;50.826;4.712;2024-02-28T06:11:52;4.97;;;4.57;;
12363;SDS011;6246;50.826;4.712;2024-02-28T06:14:18;5.73;;;4.90;;
12363;SDS011;6246;50.826;4.712;2024-02-28T06:16:47;5.67;;;4.77;;
12363;SDS011;6246;50.826;4.712;2024-02-28T06:19:13;5.47;;;4.97;;
12363;SDS011;6246;50.826;4.712;2024-02-28T06:21:39;6.00;;;5.07;;
12363;SDS011;6246;50.826;4.712;2024-02-28T06:24:05;5.40;;;4.90;;
12363;SDS011;6246;50.826;4.712;2024-02-28T06:26:31;5.03;;;4.53;;
12363;SDS011;6246;50.826;4.712;2024-02-28T06:28:57;5.67;;;4.93;;
12363;SDS011;6246;50.826;4.712;2024-02-28T06:31:26;6.20;;;5.10;;
12363;SDS011;6246;50.826;4.712;2024-02-28T06:33:56;5.30;;;4.80;;
12363;SDS011;6246;50.826;4.712;2024-02-28T06:36:22;6.87;;;5.40;;
12363;SDS011;6246;50.826;4.712;2024-02-28T06:38:48;16.73;;;6.67;;
12363;SDS011;6246;50.826;4.712;2024-02-28T06:41:14;43.07;;;8.03;;
12363;SDS011;6246;50.826;4.712;2024-02-28T06:43:41;30.00;;;6.60;;
12363;SDS011;6246;50.826;4.712;2024-02-28T06:46:07;17.50;;;6.67;;
12363;SDS011;6246;50.826;4.712;2024-02-28T06:48:34;22.00;;;6.53;;
12363;SDS011;6246;50.826;4.712;2024-02-28T06:51:00;20.03;;;7.10;;
12363;SDS011;6246;50.826;4.712;2024-02-28T06:53:26;24.87;;;7.50;;
12363;SDS011;6246;50.826;4.712;2024-02-28T06:55:52;24.13;;;7.37;;
12363;SDS011;6246;50.826;4.712;2024-02-28T06:58:18;16.10;;;6.43;;
12363;SDS011;6246;50.826;4.712;2024-02-28T07:00:44;15.50;;;6.23;;
12363;SDS011;6246;50.826;4.712;2024-02-28T07:03:10;18.47;;;6.47;;
12363;SDS011;6246;50.826;4.712;2024-02-28T07:05:36;14.40;;;5.50;;
12363;SDS011;6246;50.826;4.712;2024-02-28T07:08:03;14.13;;;5.50;;
12363;SDS011;6246;50.826;4.712;2024-02-28T07:10:29;13.20;;;5.00;;
12363;SDS011;6246;50.826;4.712;2024-02-28T07:12:55;14.50;;;5.87;;
12363;SDS011;6246;50.826;4.712;2024-02-28T07:15:21;13.23;;;5.23;;
12363;SDS011;6246;50.826;4.712;2024-02-28T07:17:47;9.77;;;5.43;;
12363;SDS011;6246;50.826;4.712;2024-02-28T07:20:13;6.53;;;4.73;;
12363;SDS011;6246;50.826;4.712;2024-02-28T07:22:39;14.30;;;5.10;;
12363;SDS011;6246;50.826;4.712;2024-02-28T07:25:07;14.20;;;5.73;;
12363;SDS011;6246;50.826;4.712;2024-02-28T07:27:33;14.07;;;6.60;;
12363;SDS011;6246;50.826;4.712;2024-02-28T07:30:00;12.90;;;5.53;;
12363;SDS011;6246;50.826;4.712;2024-02-28T07:32:28;16.03;;;5.50;;
12363;SDS011;6246;50.826;4.712;2024-02-28T07:34:57;14.50;;;5.30;;
12363;SDS011;6246;50.826;4.712;2024-02-28T07:37:23;9.90;;;5.30;;
12363;SDS011;6246;50.826;4.712;2024-02-28T07:39:49;17.13;;;4.87;;
12363;SDS011;6246;50.826;4.712;2024-02-28T07:42:14;13.23;;;5.37;;
12363;SDS011;6246;50.826;4.712;2024-02-28T07:44:40;9.87;;;5.10;;
12363;SDS011;6246;50.826;4.712;2024-02-28T07:47:06;20.50;;;8.50;;
12363;SDS011;6246;50.826;4.712;2024-02-28T07:49:32;41.67;;;12.00;;
12363;SDS011;6246;50.826;4.712;2024-02-28T07:51:59;30.77;;;11.90;;
12363;SDS011;6246;50.826;4.712;2024-02-28T07:54:25;21.00;;;10.37;;
12363;SDS011;6246;50.826;4.712;2024-02-28T07:56:51;32.23;;;15.53;;
12363;SDS011;6246;50.826;4.712;2024-02-28T07:59:17;34.50;;;19.67;;
12363;SDS011;6246;50.826;4.712;2024-02-28T08:01:44;24.83;;;17.67;;
12363;SDS011;6246;50.826;4.712;2024-02-28T08:04:10;33.70;;;19.23;;
12363;SDS011;6246;50.826;4.712;2024-02-28T08:06:36;36.50;;;21.30;;
12363;SDS011;6246;50.826;4.712;2024-02-28T08:09:02;32.73;;;22.27;;
12363;SDS011;6246;50.826;4.712;2024-02-28T08:11:29;35.20;;;23.10;;
12363;SDS011;6246;50.826;4.712;2024-02-28T08:13:55;33.53;;;24.13;;
12363;SDS011;6246;50.826;4.712;2024-02-28T08:16:21;35.77;;;23.13;;
12363;SDS011;6246;50.826;4.712;2024-02-28T08:18:47;34.93;;;24.20;;
12363;SDS011;6246;50.826;4.712;2024-02-28T08:21:13;36.70;;;25.30;;
12363;SDS011;6246;50.826;4.712;2024-02-28T08:23:39;37.97;;;26.50;;
12363;SDS011;6246;50.826;4.712;2024-02-28T08:26:05;36.47;;;26.53;;
12363;SDS011;6246;50.826;4.712;2024-02-28T08:28:31;43.37;;;27.23;;
12363;SDS011;6246;50.826;4.712;2024-02-28T08:30:58;38.33;;;26.87;;
12363;SDS011;6246;50.826;4.712;2024-02-28T08:33:24;37.93;;;27.80;;
12363;SDS011;6246;50.826;4.712;2024-02-28T08:35:50;36.83;;;29.73;;
12363;SDS011;6246;50.826;4.712;2024-02-28T08:38:16;38.27;;;28.70;;
12363;SDS011;6246;50.826;4.712;2024-02-28T08:40:42;35.80;;;27.37;;
12363;SDS011;6246;50.826;4.712;2024-02-28T08:43:08;38.43;;;27.77;;
12363;SDS011;6246;50.826;4.712;2024-02-28T08:45:34;39.93;;;29.90;;
12363;SDS011;6246;50.826;4.712;2024-02-28T08:48:00;38.73;;;29.43;;
12363;SDS011;6246;50.826;4.712;2024-02-28T08:50:27;39.17;;;30.23;;
12363;SDS011;6246;50.826;4.712;2024-02-28T08:52:54;36.67;;;28.23;;
12363;SDS011;6246;50.826;4.712;2024-02-28T08:55:20;36.23;;;28.33;;
12363;SDS011;6246;50.826;4.712;2024-02-28T08:57:47;39.40;;;28.80;;
12363;SDS011;6246;50.826;4.712;2024-02-28T09:00:13;32.77;;;26.70;;
12363;SDS011;6246;50.826;4.712;2024-02-28T09:02:40;35.20;;;26.90;;
12363;SDS011;6246;50.826;4.712;2024-02-28T09:05:06;34.10;;;27.73;;
12363;SDS011;6246;50.826;4.712;2024-02-28T09:07:34;34.30;;;27.13;;
12363;SDS011;6246;50.826;4.712;2024-02-28T09:10:03;32.67;;;25.83;;
12363;SDS011;6246;50.826;4.712;2024-02-28T09:12:29;34.53;;;27.23;;
12363;SDS011;6246;50.826;4.712;2024-02-28T09:14:55;33.03;;;25.43;;
12363;SDS011;6246;50.826;4.712;2024-02-28T09:17:22;35.90;;;24.33;;
12363;SDS011;6246;50.826;4.712;2024-02-28T09:19:48;29.83;;;24.70;;
12363;SDS011;6246;50.826;4.712;2024-02-28T09:22:15;32.03;;;24.67;;
12363;SDS011;6246;50.826;4.712;2024-02-28T09:24:42;30.03;;;23.97;;
12363;SDS011;6246;50.826;4.712;2024-02-28T09:27:08;31.80;;;23.37;;
12363;SDS011;6246;50.826;4.712;2024-02-28T09:29:34;28.63;;;22.67;;
12363;SDS011;6246;50.826;4.712;2024-02-28T09:32:00;30.50;;;23.53;;
12363;SDS011;6246;50.826;4.712;2024-02-28T09:34:26;32.17;;;24.00;;
12363;SDS011;6246;50.826;4.712;2024-02-28T09:36:52;29.63;;;23.87;;
12363;SDS011;6246;50.826;4.712;2024-02-28T09:39:18;27.20;;;22.90;;
12363;SDS011;6246;50.826;4.712;2024-02-28T09:41:46;29.90;;;23.43;;
12363;SDS011;6246;50.826;4.712;2024-02-28T09:44:14;27.93;;;22.50;;
12363;SDS011;6246;50.826;4.712;2024-02-28T09:46:41;27.53;;;22.97;;
12363;SDS011;6246;50.826;4.712;2024-02-28T09:49:07;29.03;;;21.23;;
12363;SDS011;6246;50.826;4.712;2024-02-28T09:51:35;27.67;;;21.43;;
12363;SDS011;6246;50.826;4.712;2024-02-28T09:54:01;27.23;;;21.73;;
12363;SDS011;6246;50.826;4.712;2024-02-28T09:56:28;28.37;;;21.93;;
12363;SDS011;6246;50.826;4.712;2024-02-28T09:58:54;26.50;;;21.40;;
12363;SDS011;6246;50.826;4.712;2024-02-28T10:01:24;24.27;;;20.13;;
12363;SDS011;6246;50.826;4.712;2024-02-28T10:03:51;24.63;;;20.03;;
12363;SDS011;6246;50.826;4.712;2024-02-28T10:06:18;25.53;;;20.17;;
12363;SDS011;6246;50.826;4.712;2024-02-28T10:08:44;23.27;;;18.47;;
12363;SDS011;6246;50.826;4.712;2024-02-28T10:11:22;23.03;;;19.10;;
12363;SDS011;6246;50.826;4.712;2024-02-28T10:13:48;22.27;;;18.10;;
12363;SDS011;6246;50.826;4.712;2024-02-28T10:16:15;22.17;;;18.37;;
12363;SDS011;6246;50.826;4.712;2024-02-28T10:18:44;24.00;;;18.33;;
12363;SDS011;6246;50.826;4.712;2024-02-28T10:21:11;22.43;;;17.37;;
12363;SDS011;6246;50.826;4.712;2024-02-28T10:23:41;21.77;;;17.60;;
12363;SDS011;6246;50.826;4.712;2024-02-28T10:26:10;21.20;;;16.97;;
12363;SDS011;6246;50.826;4.712;2024-02-28T10:28:40;20.33;;;16.47;;
12363;SDS011;6246;50.826;4.712;2024-02-28T10:31:06;19.80;;;16.27;;
12363;SDS011;6246;50.826;4.712;2024-02-28T10:33:32;20.87;;;16.80;;
12363;SDS011;6246;50.826;4.712;2024-02-28T10:36:00;19.60;;;16.13;;
12363;SDS011;6246;50.826;4.712;2024-02-28T10:38:28;22.07;;;16.77;;
12363;SDS011;6246;50.826;4.712;2024-02-28T10:40:54;20.00;;;15.80;;
12363;SDS011;6246;50.826;4.712;2024-02-28T10:43:21;20.03;;;15.53;;
12363;SDS011;6246;50.826;4.712;2024-02-28T10:45:48;18.93;;;14.13;;
12363;SDS011;6246;50.826;4.712;2024-02-28T10:48:14;18.17;;;14.93;;
12363;SDS011;6246;50.826;4.712;2024-02-28T10:50:41;19.53;;;15.60;;
12363;SDS011;6246;50.826;4.712;2024-02-28T10:53:12;17.53;;;14.00;;
12363;SDS011;6246;50.826;4.712;2024-02-28T10:55:40;16.70;;;13.63;;
12363;SDS011;6246;50.826;4.712;2024-02-28T10:58:07;18.20;;;14.07;;
12363;SDS011;6246;50.826;4.712;2024-02-28T11:00:34;16.13;;;13.03;;
12363;SDS011;6246;50.826;4.712;2024-02-28T11:03:01;18.10;;;14.17;;
12363;SDS011;6246;50.826;4.712;2024-02-28T11:05:35;21.43;;;15.40;;
12363;SDS011;6246;50.826;4.712;2024-02-28T11:08:02;29.60;;;14.23;;
12363;SDS011;6246;50.826;4.712;2024-02-28T11:10:31;25.33;;;13.90;;
12363;SDS011;6246;50.826;4.712;2024-02-28T11:12:58;25.00;;;13.30;;
12363;SDS011;6246;50.826;4.712;2024-02-28T11:15:24;22.40;;;12.80;;
12363;SDS011;6246;50.826;4.712;2024-02-28T11:17:54;31.05;;;14.60;;
12363;SDS011;6246;50.826;4.712;2024-02-28T11:20:20;26.63;;;13.37;;
12363;SDS011;6246;50.826;4.712;2024-02-28T11:22:47;28.20;;;12.13;;
12363;SDS011;6246;50.826;4.712;2024-02-28T11:25:14;26.70;;;12.30;;
12363;SDS011;6246;50.826;4.712;2024-02-28T11:27:46;24.30;;;12.33;;
12363;SDS011;6246;50.826;4.712;2024-02-28T11:30:13;24.57;;;12.03;;
12363;SDS011;6246;50.826;4.712;2024-02-28T11:32:40;25.93;;;12.00;;
12363;SDS011;6246;50.826;4.712;2024-02-28T11:35:06;23.27;;;11.20;;
12363;SDS011;6246;50.826;4.712;2024-02-28T11:37:32;18.07;;;10.87;;
12363;SDS011;6246;50.826;4.712;2024-02-28T11:39:59;24.43;;;14.83;;
12363;SDS011;6246;50.826;4.712;2024-02-28T11:42:25;30.83;;;15.13;;
12363;SDS011;6246;50.826;4.712;2024-02-28T11:44:54;29.70;;;14.70;;
12363;SDS011;6246;50.826;4.712;2024-02-28T11:47:22;23.20;;;13.83;;
12363;SDS011;6246;50.826;4.712;2024-02-28T11:49:49;26.97;;;14.67;;
12363;SDS011;6246;50.826;4.712;2024-02-28T11:52:15;28.13;;;14.83;;
12363;SDS011;6246;50.826;4.712;2024-02-28T11:54:41;27.00;;;13.17;;
12363;SDS011;6246;50.826;4.712;2024-02-28T11:57:07;28.37;;;14.03;;
12363;SDS011;6246;50.826;4.712;2024-02-28T11:59:33;25.10;;;13.53;;
12363;SDS011;6246;50.826;4.712;2024-02-28T12:01:59;24.70;;;13.50;;
12363;SDS011;6246;50.826;4.712;2024-02-28T12:04:25;24.97;;;13.27;;
12363;SDS011;6246;50.826;4.712;2024-02-28T12:06:51;24.43;;;12.03;;
12363;SDS011;6246;50.826;4.712;2024-02-28T12:09:17;22.37;;;12.30;;
12363;SDS011;6246;50.826;4.712;2024-02-28T12:11:43;26.77;;;12.13;;
12363;SDS011;6246;50.826;4.712;2024-02-28T12:14:09;20.00;;;12.17;;
12363;SDS011;6246;50.826;4.712;2024-02-28T12:16:36;24.70;;;11.77;;
12363;SDS011;6246;50.826;4.712;2024-02-28T12:19:08;18.83;;;11.20;;
12363;SDS011;6246;50.826;4.712;2024-02-28T12:21:35;19.67;;;10.87;;
12363;SDS011;6246;50.826;4.712;2024-02-28T12:24:01;23.07;;;11.70;;
12363;SDS011;6246;50.826;4.712;2024-02-28T12:26:27;18.43;;;11.10;;
12363;SDS011;6246;50.826;4.712;2024-02-28T12:28:53;24.50;;;10.70;;
12363;SDS011;6246;50.826;4.712;2024-02-28T12:31:19;16.03;;;10.63;;
12363;SDS011;6246;50.826;4.712;2024-02-28T12:33:46;20.90;;;10.90;;
12363;SDS011;6246;50.826;4.712;2024-02-28T12:36:12;21.93;;;10.57;;
12363;SDS011;6246;50.826;4.712;2024-02-28T12:38:39;16.90;;;9.80;;
12363;SDS011;6246;50.826;4.712;2024-02-28T12:41:06;24.40;;;10.33;;
12363;SDS011;6246;50.826;4.712;2024-02-28T12:43:32;16.90;;;9.83;;
12363;SDS011;6246;50.826;4.712;2024-02-28T12:45:58;15.97;;;9.87;;
12363;SDS011;6246;50.826;4.712;2024-02-28T12:48:24;18.37;;;10.03;;
12363;SDS011;6246;50.826;4.712;2024-02-28T12:50:50;14.50;;;9.43;;
12363;SDS011;6246;50.826;4.712;2024-02-28T12:53:17;19.10;;;9.80;;
12363;SDS011;6246;50.826;4.712;2024-02-28T12:55:43;18.63;;;9.30;;
12363;SDS011;6246;50.826;4.712;2024-02-28T12:58:10;19.70;;;9.30;;
12363;SDS011;6246;50.826;4.712;2024-02-28T13:00:36;15.73;;;8.90;;
12363;SDS011;6246;50.826;4.712;2024-02-28T13:03:02;16.77;;;8.73;;
12363;SDS011;6246;50.826;4.712;2024-02-28T13:05:28;18.70;;;9.20;;
12363;SDS011;6246;50.826;4.712;2024-02-28T13:07:54;19.00;;;8.53;;
12363;SDS011;6246;50.826;4.712;2024-02-28T13:10:20;24.37;;;9.13;;
12363;SDS011;6246;50.826;4.712;2024-02-28T13:12:47;17.77;;;8.67;;
12363;SDS011;6246;50.826;4.712;2024-02-28T13:15:13;20.30;;;9.40;;
12363;SDS011;6246;50.826;4.712;2024-02-28T13:17:39;22.40;;;8.80;;
12363;SDS011;6246;50.826;4.712;2024-02-28T13:20:07;26.87;;;8.70;;
12363;SDS011;6246;50.826;4.712;2024-02-28T13:22:33;23.43;;;8.63;;
12363;SDS011;6246;50.826;4.712;2024-02-28T13:24:59;24.43;;;8.47;;
12363;SDS011;6246;50.826;4.712;2024-02-28T13:27:25;17.30;;;8.30;;
12363;SDS011;6246;50.826;4.712;2024-02-28T13:29:51;26.37;;;8.33;;
12363;SDS011;6246;50.826;4.712;2024-02-28T13:32:17;30.27;;;8.80;;
12363;SDS011;6246;50.826;4.712;2024-02-28T13:34:43;27.47;;;8.57;;
12363;SDS011;6246;50.826;4.712;2024-02-28T13:37:10;23.03;;;8.57;;
12363;SDS011;6246;50.826;4.712;2024-02-28T13:39:36;19.80;;;7.97;;
12363;SDS011;6246;50.826;4.712;2024-02-28T13:42:02;19.20;;;8.47;;
12363;SDS011;6246;50.826;4.712;2024-02-28T13:44:31;17.53;;;8.07;;
12363;SDS011;6246;50.826;4.712;2024-02-28T13:46:57;23.10;;;8.00;;
12363;SDS011;6246;50.826;4.712;2024-02-28T13:49:23;21.73;;;7.70;;
12363;SDS011;6246;50.826;4.712;2024-02-28T13:51:49;17.67;;;7.57;;
12363;SDS011;6246;50.826;4.712;2024-02-28T13:54:16;28.43;;;10.17;;
12363;SDS011;6246;50.826;4.712;2024-02-28T13:56:42;25.63;;;9.33;;
12363;SDS011;6246;50.826;4.712;2024-02-28T13:59:08;26.10;;;8.30;;
12363;SDS011;6246;50.826;4.712;2024-02-28T14:01:34;26.30;;;8.70;;
12363;SDS011;6246;50.826;4.712;2024-02-28T14:04:01;19.57;;;8.73;;
12363;SDS011;6246;50.826;4.712;2024-02-28T14:06:28;27.40;;;8.70;;
12363;SDS011;6246;50.826;4.712;2024-02-28T14:08:55;25.77;;;8.20;;
12363;SDS011;6246;50.826;4.712;2024-02-28T14:11:21;40.63;;;9.77;;
12363;SDS011;6246;50.826;4.712;2024-02-28T14:13:47;28.57;;;8.93;;
12363;SDS011;6246;50.826;4.712;2024-02-28T14:16:14;33.17;;;9.00;;
12363;SDS011;6246;50.826;4.712;2024-02-28T14:18:40;27.17;;;8.33;;
12363;SDS011;6246;50.826;4.712;2024-02-28T14:21:06;29.47;;;8.67;;
12363;SDS011;6246;50.826;4.712;2024-02-28T14:23:32;18.37;;;7.70;;
12363;SDS011;6246;50.826;4.712;2024-02-28T14:25:58;24.97;;;7.87;;
12363;SDS011;6246;50.826;4.712;2024-02-28T14:28:24;26.60;;;8.43;;
12363;SDS011;6246;50.826;4.712;2024-02-28T14:30:50;26.33;;;8.27;;
12363;SDS011;6246;50.826;4.712;2024-02-28T14:33:17;19.87;;;7.90;;
12363;SDS011;6246;50.826;4.712;2024-02-28T14:35:43;23.03;;;8.03;;
12363;SDS011;6246;50.826;4.712;2024-02-28T14:38:09;21.77;;;7.17;;
12363;SDS011;6246;50.826;4.712;2024-02-28T14:40:35;23.80;;;7.43;;
12363;SDS011;6246;50.826;4.712;2024-02-28T14:43:01;20.83;;;7.47;;